Aeroporto :







RITROVATECI SU...

 
LOGIN :

Iscrizione | Disclaimer

   EN    FR    IT 

 









Sommario :    VFR   VFR Marginale   IFR   IFR Intensivo   IFR Molto Intensivo
Visibilità : 
Base nubi : 
>= 8 km
>= 3000ft
5 / 8 km
1000 / 3000 ft
1500m / 5 km
500 / 1000 ft
800 / 1500m
200 / 500 ft
< 800m
< 200 ft
Simboli :   Temporali  Nebbia  Neve Forte  Precipitazioni Forti  Vento > 20 kt






- Altitudine del aeroporto : 1663 ft
- Codice IATA : SLK


KSLK - Adirondack Regional

ULTIMO METAR :
  • 220451Z AUTO 00000KT 10SM OVC055 01/M01 A2969 RMK AO2 UPB09E24 SLP072 P0000 T00061006 400171094

METARs OBSOLETI :
  • 220351Z AUTO 00000KT 10SM OVC070 01/M01 A2970 RMK AO2 SLP074 T00061006
  • 220251Z AUTO 24003KT 10SM SCT050 OVC070 01/M01 A2976 RMK AO2 UPB0152E0158FZRAB0158E48 PRESFR SLP094 P0003 60003 I1003 I3003 T00061006 58043

TAF KSLK
Valido dal 22 a 06 ore il 23 a 06 ore UTC


220525Z 2206/2306 20010KT P6SM -SHRA OVC040 WS020/23050KT
FM221600 26017G27KT 3SM -SHSN BR OVC012
FM221800 27016G30KT 5SM -SHSN BR OVC020
FM222300 28012G21KT P6SM SCT070



MetMap, La meteo Aeronautica in un colpo d'occhio ! - Copyright ORBIFLY Dicembre 2007 - Disclaimer

ORBIFLY MET'MAP TEAM :

Programmazione e sviluppo : Alexandra Zaïnal
Concezione e sviluppo : Baudouin d'Aumeries
Co-Programmazione e sviluppo : Marc-Olivier Méhu
Supporto tecnico e logistico : Manuel Goepfert
Aiuto per la traduzione : Arnaldo La Scala

Contatto : metmap@orbifly.com




FONTI E CREDITI :

   NOAA